sensor_id;sensor_type;location;lat;lon;timestamp;temperature;humidity
18906;DHT22;9585;51.018;4.282;2023-03-04T00:01:07;4.70;99.90
18906;DHT22;9585;51.018;4.282;2023-03-04T00:03:40;4.70;99.90
18906;DHT22;9585;51.018;4.282;2023-03-04T00:06:36;4.70;99.90
18906;DHT22;9585;51.018;4.282;2023-03-04T00:09:05;4.70;99.90
18906;DHT22;9585;51.018;4.282;2023-03-04T00:11:33;4.70;99.90
18906;DHT22;9585;51.018;4.282;2023-03-04T00:14:01;4.60;99.90
18906;DHT22;9585;51.018;4.282;2023-03-04T00:16:31;4.60;99.90
18906;DHT22;9585;51.018;4.282;2023-03-04T00:19:05;4.70;99.90
18906;DHT22;9585;51.018;4.282;2023-03-04T00:24:57;4.60;99.90
18906;DHT22;9585;51.018;4.282;2023-03-04T00:27:42;4.60;99.90
18906;DHT22;9585;51.018;4.282;2023-03-04T00:30:20;4.60;99.90
18906;DHT22;9585;51.018;4.282;2023-03-04T00:32:50;4.60;99.90
18906;DHT22;9585;51.018;4.282;2023-03-04T00:35:22;4.60;99.90
18906;DHT22;9585;51.018;4.282;2023-03-04T00:37:56;4.60;99.90
18906;DHT22;9585;51.018;4.282;2023-03-04T00:40:32;4.70;99.90
18906;DHT22;9585;51.018;4.282;2023-03-04T00:43:01;4.70;99.90
18906;DHT22;9585;51.018;4.282;2023-03-04T00:45:37;4.60;99.90
18906;DHT22;9585;51.018;4.282;2023-03-04T00:48:07;4.70;99.90
18906;DHT22;9585;51.018;4.282;2023-03-04T00:50:36;4.70;99.90
18906;DHT22;9585;51.018;4.282;2023-03-04T00:53:07;4.70;99.90
18906;DHT22;9585;51.018;4.282;2023-03-04T00:55:44;4.70;99.90
18906;DHT22;9585;51.018;4.282;2023-03-04T00:58:15;4.70;99.90
18906;DHT22;9585;51.018;4.282;2023-03-04T01:00:44;4.70;99.90
18906;DHT22;9585;51.018;4.282;2023-03-04T01:03:21;4.70;99.90
18906;DHT22;9585;51.018;4.282;2023-03-04T01:05:53;4.70;99.90
18906;DHT22;9585;51.018;4.282;2023-03-04T01:08:26;4.70;99.90
18906;DHT22;9585;51.018;4.282;2023-03-04T01:11:05;4.70;99.90
18906;DHT22;9585;51.018;4.282;2023-03-04T01:13:34;4.70;99.90
18906;DHT22;9585;51.018;4.282;2023-03-04T01:16:03;4.70;99.90
18906;DHT22;9585;51.018;4.282;2023-03-04T01:18:31;4.70;99.90
18906;DHT22;9585;51.018;4.282;2023-03-04T01:20:59;4.70;99.90
18906;DHT22;9585;51.018;4.282;2023-03-04T01:23:27;4.70;99.90
18906;DHT22;9585;51.018;4.282;2023-03-04T01:25:55;4.70;99.90
18906;DHT22;9585;51.018;4.282;2023-03-04T01:28:25;4.60;99.90
18906;DHT22;9585;51.018;4.282;2023-03-04T01:30:53;4.60;99.90
18906;DHT22;9585;51.018;4.282;2023-03-04T01:33:20;4.60;99.90
18906;DHT22;9585;51.018;4.282;2023-03-04T01:35:50;4.60;99.90
18906;DHT22;9585;51.018;4.282;2023-03-04T01:38:18;4.60;99.90
18906;DHT22;9585;51.018;4.282;2023-03-04T01:40:46;4.60;99.90
18906;DHT22;9585;51.018;4.282;2023-03-04T01:43:17;4.60;99.90
18906;DHT22;9585;51.018;4.282;2023-03-04T01:46:00;4.60;99.90
18906;DHT22;9585;51.018;4.282;2023-03-04T01:48:29;4.60;99.90
18906;DHT22;9585;51.018;4.282;2023-03-04T01:50:59;4.60;99.90
18906;DHT22;9585;51.018;4.282;2023-03-04T01:53:28;4.50;99.90
18906;DHT22;9585;51.018;4.282;2023-03-04T01:56:04;4.50;99.90
18906;DHT22;9585;51.018;4.282;2023-03-04T01:58:37;4.50;99.90
18906;DHT22;9585;51.018;4.282;2023-03-04T02:01:13;4.50;99.90
18906;DHT22;9585;51.018;4.282;2023-03-04T02:03:41;4.50;99.90
18906;DHT22;9585;51.018;4.282;2023-03-04T02:06:10;4.50;99.90
18906;DHT22;9585;51.018;4.282;2023-03-04T02:08:42;4.50;99.90
18906;DHT22;9585;51.018;4.282;2023-03-04T02:11:10;4.50;99.90
18906;DHT22;9585;51.018;4.282;2023-03-04T02:13:38;4.40;99.90
18906;DHT22;9585;51.018;4.282;2023-03-04T02:16:12;4.40;99.90
18906;DHT22;9585;51.018;4.282;2023-03-04T02:18:41;4.50;99.90
18906;DHT22;9585;51.018;4.282;2023-03-04T02:21:17;4.50;99.90
18906;DHT22;9585;51.018;4.282;2023-03-04T02:23:54;4.50;99.90
18906;DHT22;9585;51.018;4.282;2023-03-04T02:26:45;4.50;99.90
18906;DHT22;9585;51.018;4.282;2023-03-04T02:29:18;4.40;99.90
18906;DHT22;9585;51.018;4.282;2023-03-04T02:31:49;4.50;99.90
18906;DHT22;9585;51.018;4.282;2023-03-04T02:34:20;4.50;99.90
18906;DHT22;9585;51.018;4.282;2023-03-04T02:36:55;4.50;99.90
18906;DHT22;9585;51.018;4.282;2023-03-04T02:39:29;4.50;99.90
18906;DHT22;9585;51.018;4.282;2023-03-04T02:42:01;4.50;99.90
18906;DHT22;9585;51.018;4.282;2023-03-04T02:44:30;4.40;99.90
18906;DHT22;9585;51.018;4.282;2023-03-04T02:46:59;4.40;99.90
18906;DHT22;9585;51.018;4.282;2023-03-04T02:49:29;4.40;99.90
18906;DHT22;9585;51.018;4.282;2023-03-04T02:52:02;4.40;99.90
18906;DHT22;9585;51.018;4.282;2023-03-04T02:54:30;4.40;99.90
18906;DHT22;9585;51.018;4.282;2023-03-04T02:57:00;4.40;99.90
18906;DHT22;9585;51.018;4.282;2023-03-04T02:59:28;4.40;99.90
18906;DHT22;9585;51.018;4.282;2023-03-04T03:01:56;4.40;99.90
18906;DHT22;9585;51.018;4.282;2023-03-04T03:04:24;4.40;99.90
18906;DHT22;9585;51.018;4.282;2023-03-04T03:06:52;4.40;99.90
18906;DHT22;9585;51.018;4.282;2023-03-04T03:09:20;4.40;99.90
18906;DHT22;9585;51.018;4.282;2023-03-04T03:11:48;4.40;99.90
18906;DHT22;9585;51.018;4.282;2023-03-04T03:14:17;4.40;99.90
18906;DHT22;9585;51.018;4.282;2023-03-04T03:16:44;4.40;99.90
18906;DHT22;9585;51.018;4.282;2023-03-04T03:19:11;4.40;99.90
18906;DHT22;9585;51.018;4.282;2023-03-04T03:21:39;4.40;99.90
18906;DHT22;9585;51.018;4.282;2023-03-04T03:24:06;4.40;99.90
18906;DHT22;9585;51.018;4.282;2023-03-04T03:26:34;4.40;99.90
18906;DHT22;9585;51.018;4.282;2023-03-04T03:29:01;4.40;99.90
18906;DHT22;9585;51.018;4.282;2023-03-04T03:31:30;4.40;99.90
18906;DHT22;9585;51.018;4.282;2023-03-04T03:33:58;4.50;99.90
18906;DHT22;9585;51.018;4.282;2023-03-04T03:36:25;4.50;99.90
18906;DHT22;9585;51.018;4.282;2023-03-04T03:38:52;4.50;99.90
18906;DHT22;9585;51.018;4.282;2023-03-04T03:41:20;4.50;99.90
18906;DHT22;9585;51.018;4.282;2023-03-04T03:43:47;4.50;99.90
18906;DHT22;9585;51.018;4.282;2023-03-04T03:46:15;4.60;99.90
18906;DHT22;9585;51.018;4.282;2023-03-04T03:48:44;4.60;99.90
18906;DHT22;9585;51.018;4.282;2023-03-04T03:51:11;4.60;99.90
18906;DHT22;9585;51.018;4.282;2023-03-04T03:53:39;4.60;99.90
18906;DHT22;9585;51.018;4.282;2023-03-04T03:56:06;4.60;99.90
18906;DHT22;9585;51.018;4.282;2023-03-04T03:58:34;4.60;99.90
18906;DHT22;9585;51.018;4.282;2023-03-04T04:01:01;4.60;99.90
18906;DHT22;9585;51.018;4.282;2023-03-04T04:03:29;4.60;99.90
18906;DHT22;9585;51.018;4.282;2023-03-04T04:05:58;4.60;99.90
18906;DHT22;9585;51.018;4.282;2023-03-04T04:08:25;4.60;99.90
18906;DHT22;9585;51.018;4.282;2023-03-04T04:10:53;4.60;99.90
18906;DHT22;9585;51.018;4.282;2023-03-04T04:13:21;4.60;99.90
18906;DHT22;9585;51.018;4.282;2023-03-04T04:15:50;4.60;99.90
18906;DHT22;9585;51.018;4.282;2023-03-04T04:18:17;4.60;99.90
18906;DHT22;9585;51.018;4.282;2023-03-04T04:20:45;4.60;99.90
18906;DHT22;9585;51.018;4.282;2023-03-04T04:23:14;4.60;99.90
18906;DHT22;9585;51.018;4.282;2023-03-04T04:25:42;4.60;99.90
18906;DHT22;9585;51.018;4.282;2023-03-04T04:28:09;4.60;99.90
18906;DHT22;9585;51.018;4.282;2023-03-04T04:30:37;4.70;99.90
18906;DHT22;9585;51.018;4.282;2023-03-04T04:33:05;4.70;99.90
18906;DHT22;9585;51.018;4.282;2023-03-04T04:35:34;4.60;99.90
18906;DHT22;9585;51.018;4.282;2023-03-04T04:38:03;4.60;99.90
18906;DHT22;9585;51.018;4.282;2023-03-04T04:40:32;4.60;99.90
18906;DHT22;9585;51.018;4.282;2023-03-04T04:43:00;4.60;99.90
18906;DHT22;9585;51.018;4.282;2023-03-04T04:45:27;4.60;99.90
18906;DHT22;9585;51.018;4.282;2023-03-04T04:47:55;4.70;99.90
18906;DHT22;9585;51.018;4.282;2023-03-04T04:50:23;4.60;99.90
18906;DHT22;9585;51.018;4.282;2023-03-04T04:52:51;4.60;99.90
18906;DHT22;9585;51.018;4.282;2023-03-04T04:55:19;4.70;99.90
18906;DHT22;9585;51.018;4.282;2023-03-04T04:57:48;4.70;99.90
18906;DHT22;9585;51.018;4.282;2023-03-04T05:00:17;4.70;99.90
18906;DHT22;9585;51.018;4.282;2023-03-04T05:02:45;4.70;99.90
18906;DHT22;9585;51.018;4.282;2023-03-04T05:05:12;4.70;99.90
18906;DHT22;9585;51.018;4.282;2023-03-04T05:07:40;4.70;99.90
18906;DHT22;9585;51.018;4.282;2023-03-04T05:10:08;4.60;99.90
18906;DHT22;9585;51.018;4.282;2023-03-04T05:12:36;4.70;99.90
18906;DHT22;9585;51.018;4.282;2023-03-04T05:15:06;4.70;99.90
18906;DHT22;9585;51.018;4.282;2023-03-04T05:17:33;4.70;99.90
18906;DHT22;9585;51.018;4.282;2023-03-04T05:20:01;4.70;99.90
18906;DHT22;9585;51.018;4.282;2023-03-04T05:22:29;4.70;99.90
18906;DHT22;9585;51.018;4.282;2023-03-04T05:24:56;4.70;99.90
18906;DHT22;9585;51.018;4.282;2023-03-04T05:27:24;4.70;99.90
18906;DHT22;9585;51.018;4.282;2023-03-04T05:29:51;4.70;99.90
18906;DHT22;9585;51.018;4.282;2023-03-04T05:32:21;4.70;99.90
18906;DHT22;9585;51.018;4.282;2023-03-04T05:34:49;4.70;99.90
18906;DHT22;9585;51.018;4.282;2023-03-04T05:37:16;4.70;99.90
18906;DHT22;9585;51.018;4.282;2023-03-04T05:39:44;4.70;99.90
18906;DHT22;9585;51.018;4.282;2023-03-04T05:42:11;4.70;99.90
18906;DHT22;9585;51.018;4.282;2023-03-04T05:44:39;4.70;99.90
18906;DHT22;9585;51.018;4.282;2023-03-04T05:47:06;4.70;99.90
18906;DHT22;9585;51.018;4.282;2023-03-04T05:49:35;4.60;99.90
18906;DHT22;9585;51.018;4.282;2023-03-04T05:52:03;4.60;99.90
18906;DHT22;9585;51.018;4.282;2023-03-04T05:54:30;4.70;99.90
18906;DHT22;9585;51.018;4.282;2023-03-04T05:56:58;4.70;99.90
18906;DHT22;9585;51.018;4.282;2023-03-04T05:59:25;4.70;99.90
18906;DHT22;9585;51.018;4.282;2023-03-04T06:01:53;4.70;99.90
18906;DHT22;9585;51.018;4.282;2023-03-04T06:04:20;4.70;99.90
18906;DHT22;9585;51.018;4.282;2023-03-04T06:06:49;4.70;99.90
18906;DHT22;9585;51.018;4.282;2023-03-04T06:09:17;4.70;99.90
18906;DHT22;9585;51.018;4.282;2023-03-04T06:11:46;4.70;99.90
18906;DHT22;9585;51.018;4.282;2023-03-04T06:14:13;4.70;99.90
18906;DHT22;9585;51.018;4.282;2023-03-04T06:16:41;4.70;99.90
18906;DHT22;9585;51.018;4.282;2023-03-04T06:19:08;4.70;99.90
18906;DHT22;9585;51.018;4.282;2023-03-04T06:21:36;4.70;99.90
18906;DHT22;9585;51.018;4.282;2023-03-04T06:24:05;4.70;99.90
18906;DHT22;9585;51.018;4.282;2023-03-04T06:26:33;4.70;99.90
18906;DHT22;9585;51.018;4.282;2023-03-04T06:29:00;4.70;99.90
18906;DHT22;9585;51.018;4.282;2023-03-04T06:31:27;4.70;99.90
18906;DHT22;9585;51.018;4.282;2023-03-04T06:33:55;4.70;99.90
18906;DHT22;9585;51.018;4.282;2023-03-04T06:36:22;4.70;99.90
18906;DHT22;9585;51.018;4.282;2023-03-04T06:38:49;4.60;99.90
18906;DHT22;9585;51.018;4.282;2023-03-04T06:41:18;4.70;99.90
18906;DHT22;9585;51.018;4.282;2023-03-04T06:43:46;4.60;99.90
18906;DHT22;9585;51.018;4.282;2023-03-04T06:46:13;4.60;99.90
18906;DHT22;9585;51.018;4.282;2023-03-04T06:48:41;4.70;99.90
18906;DHT22;9585;51.018;4.282;2023-03-04T06:51:09;4.80;99.90
18906;DHT22;9585;51.018;4.282;2023-03-04T06:53:38;4.80;99.90
18906;DHT22;9585;51.018;4.282;2023-03-04T06:56:09;4.90;99.90
18906;DHT22;9585;51.018;4.282;2023-03-04T06:58:41;5.00;99.90
18906;DHT22;9585;51.018;4.282;2023-03-04T07:01:11;5.00;99.90
18906;DHT22;9585;51.018;4.282;2023-03-04T07:03:39;5.00;99.90
18906;DHT22;9585;51.018;4.282;2023-03-04T07:06:09;4.90;99.90
18906;DHT22;9585;51.018;4.282;2023-03-04T07:08:37;5.00;99.90
18906;DHT22;9585;51.018;4.282;2023-03-04T07:11:05;4.90;99.90
18906;DHT22;9585;51.018;4.282;2023-03-04T07:13:33;4.90;99.90
18906;DHT22;9585;51.018;4.282;2023-03-04T07:16:05;5.00;99.90
18906;DHT22;9585;51.018;4.282;2023-03-04T07:18:33;4.90;99.90
18906;DHT22;9585;51.018;4.282;2023-03-04T07:21:00;5.00;99.90
18906;DHT22;9585;51.018;4.282;2023-03-04T07:23:28;5.00;99.90
18906;DHT22;9585;51.018;4.282;2023-03-04T07:25:55;5.00;99.90
18906;DHT22;9585;51.018;4.282;2023-03-04T07:28:23;5.00;99.90
18906;DHT22;9585;51.018;4.282;2023-03-04T07:30:50;5.10;99.90
18906;DHT22;9585;51.018;4.282;2023-03-04T07:33:19;5.10;99.90
18906;DHT22;9585;51.018;4.282;2023-03-04T07:35:47;5.10;99.90
18906;DHT22;9585;51.018;4.282;2023-03-04T07:38:14;5.10;99.90
18906;DHT22;9585;51.018;4.282;2023-03-04T07:40:42;5.10;99.90
18906;DHT22;9585;51.018;4.282;2023-03-04T07:43:11;5.10;99.90
18906;DHT22;9585;51.018;4.282;2023-03-04T07:45:38;5.10;99.90
18906;DHT22;9585;51.018;4.282;2023-03-04T07:48:06;5.10;99.90
18906;DHT22;9585;51.018;4.282;2023-03-04T07:50:35;5.10;99.90
18906;DHT22;9585;51.018;4.282;2023-03-04T07:53:05;5.10;99.90
18906;DHT22;9585;51.018;4.282;2023-03-04T07:55:32;5.10;99.90
18906;DHT22;9585;51.018;4.282;2023-03-04T07:58:02;5.10;99.90
18906;DHT22;9585;51.018;4.282;2023-03-04T08:00:29;5.20;99.90
18906;DHT22;9585;51.018;4.282;2023-03-04T08:02:57;5.30;99.90
18906;DHT22;9585;51.018;4.282;2023-03-04T08:05:24;5.30;99.90
18906;DHT22;9585;51.018;4.282;2023-03-04T08:07:53;5.40;99.90
18906;DHT22;9585;51.018;4.282;2023-03-04T08:10:22;5.40;99.90
18906;DHT22;9585;51.018;4.282;2023-03-04T08:12:52;5.30;99.90
18906;DHT22;9585;51.018;4.282;2023-03-04T08:15:20;5.30;99.90
18906;DHT22;9585;51.018;4.282;2023-03-04T08:17:48;5.30;99.90
18906;DHT22;9585;51.018;4.282;2023-03-04T08:20:16;5.30;99.90
18906;DHT22;9585;51.018;4.282;2023-03-04T08:22:43;5.20;99.90
18906;DHT22;9585;51.018;4.282;2023-03-04T08:25:12;5.30;99.90
18906;DHT22;9585;51.018;4.282;2023-03-04T08:27:39;5.30;99.90
18906;DHT22;9585;51.018;4.282;2023-03-04T08:30:08;5.30;99.90
18906;DHT22;9585;51.018;4.282;2023-03-04T08:32:36;5.30;99.90
18906;DHT22;9585;51.018;4.282;2023-03-04T08:35:04;5.30;99.90
18906;DHT22;9585;51.018;4.282;2023-03-04T08:37:31;5.30;99.90
18906;DHT22;9585;51.018;4.282;2023-03-04T08:39:59;5.40;99.90
18906;DHT22;9585;51.018;4.282;2023-03-04T08:42:28;5.40;99.90
18906;DHT22;9585;51.018;4.282;2023-03-04T08:44:55;5.50;99.90
18906;DHT22;9585;51.018;4.282;2023-03-04T08:47:23;5.50;99.90
18906;DHT22;9585;51.018;4.282;2023-03-04T08:49:50;5.60;99.90
18906;DHT22;9585;51.018;4.282;2023-03-04T08:52:18;5.60;99.90
18906;DHT22;9585;51.018;4.282;2023-03-04T08:54:47;5.60;99.90
18906;DHT22;9585;51.018;4.282;2023-03-04T08:57:14;5.70;99.90
18906;DHT22;9585;51.018;4.282;2023-03-04T08:59:43;5.70;99.90
18906;DHT22;9585;51.018;4.282;2023-03-04T09:02:11;5.80;99.90
18906;DHT22;9585;51.018;4.282;2023-03-04T09:04:38;5.80;99.90
18906;DHT22;9585;51.018;4.282;2023-03-04T09:07:06;6.00;99.90
18906;DHT22;9585;51.018;4.282;2023-03-04T09:09:34;5.90;99.90
18906;DHT22;9585;51.018;4.282;2023-03-04T09:12:01;5.90;99.90
18906;DHT22;9585;51.018;4.282;2023-03-04T09:14:32;5.90;99.90
18906;DHT22;9585;51.018;4.282;2023-03-04T09:17:05;5.90;99.90
18906;DHT22;9585;51.018;4.282;2023-03-04T09:19:36;5.80;99.90
18906;DHT22;9585;51.018;4.282;2023-03-04T09:22:08;5.70;99.90
18906;DHT22;9585;51.018;4.282;2023-03-04T09:24:36;5.70;99.90
18906;DHT22;9585;51.018;4.282;2023-03-04T09:27:03;5.80;99.90
18906;DHT22;9585;51.018;4.282;2023-03-04T09:29:34;5.90;99.90
18906;DHT22;9585;51.018;4.282;2023-03-04T09:32:02;5.90;99.90
18906;DHT22;9585;51.018;4.282;2023-03-04T09:34:30;5.90;99.90
18906;DHT22;9585;51.018;4.282;2023-03-04T09:36:58;5.90;99.90
18906;DHT22;9585;51.018;4.282;2023-03-04T09:39:25;6.00;99.90
18906;DHT22;9585;51.018;4.282;2023-03-04T09:41:55;6.00;99.90
18906;DHT22;9585;51.018;4.282;2023-03-04T09:44:28;6.00;99.90
18906;DHT22;9585;51.018;4.282;2023-03-04T09:57:45;6.20;99.90
18906;DHT22;9585;51.018;4.282;2023-03-04T10:00:20;6.30;99.90
18906;DHT22;9585;51.018;4.282;2023-03-04T10:03:12;6.30;99.90
18906;DHT22;9585;51.018;4.282;2023-03-04T10:05:45;6.40;99.90
18906;DHT22;9585;51.018;4.282;2023-03-04T10:08:42;6.50;99.90
18906;DHT22;9585;51.018;4.282;2023-03-04T10:11:20;6.50;99.90
18906;DHT22;9585;51.018;4.282;2023-03-04T10:17:27;6.40;99.90
18906;DHT22;9585;51.018;4.282;2023-03-04T10:20:10;6.40;99.90
18906;DHT22;9585;51.018;4.282;2023-03-04T10:22:48;6.50;99.90
18906;DHT22;9585;51.018;4.282;2023-03-04T10:28:09;6.40;99.90
18906;DHT22;9585;51.018;4.282;2023-03-04T10:31:08;6.40;99.90
18906;DHT22;9585;51.018;4.282;2023-03-04T10:33:39;6.60;99.90
18906;DHT22;9585;51.018;4.282;2023-03-04T10:39:16;6.60;99.90
18906;DHT22;9585;51.018;4.282;2023-03-04T10:41:56;6.70;99.90
18906;DHT22;9585;51.018;4.282;2023-03-04T10:44:24;6.80;99.90
18906;DHT22;9585;51.018;4.282;2023-03-04T10:47:00;6.80;99.90
18906;DHT22;9585;51.018;4.282;2023-03-04T10:49:32;6.80;99.90
18906;DHT22;9585;51.018;4.282;2023-03-04T10:52:03;6.80;99.90
18906;DHT22;9585;51.018;4.282;2023-03-04T10:54:46;6.90;99.90
18906;DHT22;9585;51.018;4.282;2023-03-04T10:57:17;7.00;99.90
18906;DHT22;9585;51.018;4.282;2023-03-04T11:02:36;7.10;99.90
18906;DHT22;9585;51.018;4.282;2023-03-04T11:05:16;7.10;99.90
18906;DHT22;9585;51.018;4.282;2023-03-04T11:07:46;7.10;99.90
18906;DHT22;9585;51.018;4.282;2023-03-04T11:10:24;7.10;99.90
18906;DHT22;9585;51.018;4.282;2023-03-04T11:12:58;7.10;99.90
18906;DHT22;9585;51.018;4.282;2023-03-04T11:15:29;7.20;99.90
18906;DHT22;9585;51.018;4.282;2023-03-04T11:21:03;7.60;99.90
18906;DHT22;9585;51.018;4.282;2023-03-04T11:23:40;7.60;99.90
18906;DHT22;9585;51.018;4.282;2023-03-04T11:26:20;7.70;99.90
18906;DHT22;9585;51.018;4.282;2023-03-04T11:28:51;7.80;99.90
18906;DHT22;9585;51.018;4.282;2023-03-04T11:31:22;7.90;99.90
18906;DHT22;9585;51.018;4.282;2023-03-04T11:33:55;8.00;99.90
18906;DHT22;9585;51.018;4.282;2023-03-04T11:36:33;8.00;99.90
18906;DHT22;9585;51.018;4.282;2023-03-04T11:39:04;8.00;99.90
18906;DHT22;9585;51.018;4.282;2023-03-04T11:41:41;8.10;99.90
18906;DHT22;9585;51.018;4.282;2023-03-04T11:44:15;8.20;99.90
18906;DHT22;9585;51.018;4.282;2023-03-04T11:47:13;8.10;99.90
18906;DHT22;9585;51.018;4.282;2023-03-04T11:50:19;8.20;99.90
18906;DHT22;9585;51.018;4.282;2023-03-04T11:53:09;8.10;99.90
18906;DHT22;9585;51.018;4.282;2023-03-04T11:55:44;8.10;99.90
18906;DHT22;9585;51.018;4.282;2023-03-04T11:58:37;8.00;99.90
18906;DHT22;9585;51.018;4.282;2023-03-04T12:01:08;7.90;99.90
18906;DHT22;9585;51.018;4.282;2023-03-04T12:06:51;8.30;99.90
18906;DHT22;9585;51.018;4.282;2023-03-04T12:09:40;8.60;99.90
18906;DHT22;9585;51.018;4.282;2023-03-04T12:12:24;8.50;99.90
18906;DHT22;9585;51.018;4.282;2023-03-04T12:15:01;8.60;99.90
18906;DHT22;9585;51.018;4.282;2023-03-04T12:17:40;8.70;99.90
18906;DHT22;9585;51.018;4.282;2023-03-04T12:23:14;8.60;99.90
18906;DHT22;9585;51.018;4.282;2023-03-04T12:25:51;8.60;99.90
18906;DHT22;9585;51.018;4.282;2023-03-04T12:28:46;8.50;99.90
18906;DHT22;9585;51.018;4.282;2023-03-04T12:31:39;8.40;99.90
18906;DHT22;9585;51.018;4.282;2023-03-04T12:37:19;8.10;99.90
18906;DHT22;9585;51.018;4.282;2023-03-04T12:39:59;8.00;99.90
18906;DHT22;9585;51.018;4.282;2023-03-04T12:42:36;8.00;99.90
18906;DHT22;9585;51.018;4.282;2023-03-04T12:45:15;7.90;99.90
18906;DHT22;9585;51.018;4.282;2023-03-04T12:47:53;7.80;99.90
18906;DHT22;9585;51.018;4.282;2023-03-04T12:50:30;7.80;99.90
18906;DHT22;9585;51.018;4.282;2023-03-04T12:53:10;7.80;99.90
18906;DHT22;9585;51.018;4.282;2023-03-04T12:55:44;7.90;99.90
18906;DHT22;9585;51.018;4.282;2023-03-04T12:58:16;7.80;99.90
18906;DHT22;9585;51.018;4.282;2023-03-04T13:00:50;7.80;99.90
18906;DHT22;9585;51.018;4.282;2023-03-04T13:03:22;7.80;99.90
18906;DHT22;9585;51.018;4.282;2023-03-04T13:06:18;7.80;99.90
18906;DHT22;9585;51.018;4.282;2023-03-04T13:08:57;7.90;99.90
18906;DHT22;9585;51.018;4.282;2023-03-04T13:11:52;7.80;99.90
18906;DHT22;9585;51.018;4.282;2023-03-04T13:14:32;7.90;99.90
18906;DHT22;9585;51.018;4.282;2023-03-04T13:17:33;8.10;99.90
18906;DHT22;9585;51.018;4.282;2023-03-04T13:19:57;8.00;99.90
18906;DHT22;9585;51.018;4.282;2023-03-04T13:22:54;8.00;99.90
18906;DHT22;9585;51.018;4.282;2023-03-04T13:25:36;8.00;99.90
18906;DHT22;9585;51.018;4.282;2023-03-04T13:28:26;7.90;99.90
18906;DHT22;9585;51.018;4.282;2023-03-04T13:31:21;7.90;99.90
18906;DHT22;9585;51.018;4.282;2023-03-04T13:34:39;7.90;99.90
18906;DHT22;9585;51.018;4.282;2023-03-04T13:36:58;7.90;99.90
18906;DHT22;9585;51.018;4.282;2023-03-04T13:39:32;7.90;99.90
18906;DHT22;9585;51.018;4.282;2023-03-04T13:42:41;7.90;99.90
18906;DHT22;9585;51.018;4.282;2023-03-04T13:45:32;7.90;99.90
18906;DHT22;9585;51.018;4.282;2023-03-04T13:48:01;7.80;99.90
18906;DHT22;9585;51.018;4.282;2023-03-04T13:50:33;7.80;99.90
18906;DHT22;9585;51.018;4.282;2023-03-04T13:53:40;7.80;99.90
18906;DHT22;9585;51.018;4.282;2023-03-04T13:56:27;7.70;99.90
18906;DHT22;9585;51.018;4.282;2023-03-04T13:59:16;7.70;99.90
18906;DHT22;9585;51.018;4.282;2023-03-04T14:01:54;7.80;99.90
18906;DHT22;9585;51.018;4.282;2023-03-04T14:04:25;8.00;99.90
18906;DHT22;9585;51.018;4.282;2023-03-04T14:06:54;8.10;99.90
18906;DHT22;9585;51.018;4.282;2023-03-04T14:09:29;8.10;99.90
18906;DHT22;9585;51.018;4.282;2023-03-04T14:12:00;8.20;99.90
18906;DHT22;9585;51.018;4.282;2023-03-04T14:14:31;8.10;99.90
18906;DHT22;9585;51.018;4.282;2023-03-04T14:17:03;8.10;99.90
18906;DHT22;9585;51.018;4.282;2023-03-04T14:19:46;7.90;99.90
18906;DHT22;9585;51.018;4.282;2023-03-04T14:22:24;7.80;99.90
18906;DHT22;9585;51.018;4.282;2023-03-04T14:25:20;7.70;99.90
18906;DHT22;9585;51.018;4.282;2023-03-04T14:27:47;7.70;99.90
18906;DHT22;9585;51.018;4.282;2023-03-04T14:30:20;7.50;99.90
18906;DHT22;9585;51.018;4.282;2023-03-04T14:32:52;7.50;99.90
18906;DHT22;9585;51.018;4.282;2023-03-04T14:35:27;7.60;99.90
18906;DHT22;9585;51.018;4.282;2023-03-04T14:37:58;7.60;99.90
18906;DHT22;9585;51.018;4.282;2023-03-04T14:40:43;7.60;99.90
18906;DHT22;9585;51.018;4.282;2023-03-04T14:43:14;7.60;99.90
18906;DHT22;9585;51.018;4.282;2023-03-04T14:45:47;7.70;99.90
18906;DHT22;9585;51.018;4.282;2023-03-04T14:48:21;7.80;99.90
18906;DHT22;9585;51.018;4.282;2023-03-04T14:50:58;7.90;99.90
18906;DHT22;9585;51.018;4.282;2023-03-04T14:53:27;8.10;99.90
18906;DHT22;9585;51.018;4.282;2023-03-04T14:56:27;8.00;99.90
18906;DHT22;9585;51.018;4.282;2023-03-04T14:58:58;8.10;99.90
18906;DHT22;9585;51.018;4.282;2023-03-04T15:01:31;8.20;99.90
18906;DHT22;9585;51.018;4.282;2023-03-04T15:04:01;8.20;99.90
18906;DHT22;9585;51.018;4.282;2023-03-04T15:06:32;8.20;99.90
18906;DHT22;9585;51.018;4.282;2023-03-04T15:09:18;8.20;99.90
18906;DHT22;9585;51.018;4.282;2023-03-04T15:11:50;8.00;99.90
18906;DHT22;9585;51.018;4.282;2023-03-04T15:14:39;8.00;99.90
18906;DHT22;9585;51.018;4.282;2023-03-04T15:17:22;8.00;99.90
18906;DHT22;9585;51.018;4.282;2023-03-04T15:20:18;7.90;99.90
18906;DHT22;9585;51.018;4.282;2023-03-04T15:23:09;7.90;99.90
18906;DHT22;9585;51.018;4.282;2023-03-04T15:25:39;8.00;99.90
18906;DHT22;9585;51.018;4.282;2023-03-04T15:28:15;8.10;99.90
18906;DHT22;9585;51.018;4.282;2023-03-04T15:30:43;8.00;99.90
18906;DHT22;9585;51.018;4.282;2023-03-04T15:33:25;8.00;99.90
18906;DHT22;9585;51.018;4.282;2023-03-04T15:35:56;8.10;99.90
18906;DHT22;9585;51.018;4.282;2023-03-04T15:38:25;8.10;99.90
18906;DHT22;9585;51.018;4.282;2023-03-04T15:40:56;8.00;99.90
18906;DHT22;9585;51.018;4.282;2023-03-04T15:43:26;7.90;99.90
18906;DHT22;9585;51.018;4.282;2023-03-04T15:45:54;7.80;99.90
18906;DHT22;9585;51.018;4.282;2023-03-04T15:48:22;7.90;99.90
18906;DHT22;9585;51.018;4.282;2023-03-04T15:50:54;7.80;99.90
18906;DHT22;9585;51.018;4.282;2023-03-04T15:53:32;7.80;99.90
18906;DHT22;9585;51.018;4.282;2023-03-04T15:56:02;7.80;99.90
18906;DHT22;9585;51.018;4.282;2023-03-04T15:58:34;7.80;99.90
18906;DHT22;9585;51.018;4.282;2023-03-04T16:01:01;7.80;99.90
18906;DHT22;9585;51.018;4.282;2023-03-04T16:03:29;7.80;99.90
18906;DHT22;9585;51.018;4.282;2023-03-04T16:05:57;7.60;99.90
18906;DHT22;9585;51.018;4.282;2023-03-04T16:08:24;7.60;99.90
18906;DHT22;9585;51.018;4.282;2023-03-04T16:10:53;7.50;99.90
18906;DHT22;9585;51.018;4.282;2023-03-04T16:13:22;7.40;99.90
18906;DHT22;9585;51.018;4.282;2023-03-04T16:15:54;7.40;99.90
18906;DHT22;9585;51.018;4.282;2023-03-04T16:18:22;7.40;99.90
18906;DHT22;9585;51.018;4.282;2023-03-04T16:20:50;7.40;99.90
18906;DHT22;9585;51.018;4.282;2023-03-04T16:23:20;7.40;99.90
18906;DHT22;9585;51.018;4.282;2023-03-04T16:26:11;7.40;99.90
18906;DHT22;9585;51.018;4.282;2023-03-04T16:28:39;7.40;99.90
18906;DHT22;9585;51.018;4.282;2023-03-04T16:31:09;7.30;99.90
18906;DHT22;9585;51.018;4.282;2023-03-04T16:33:37;7.20;99.90
18906;DHT22;9585;51.018;4.282;2023-03-04T16:36:11;7.20;99.90
18906;DHT22;9585;51.018;4.282;2023-03-04T16:38:39;7.20;99.90
18906;DHT22;9585;51.018;4.282;2023-03-04T16:41:11;7.10;99.90
18906;DHT22;9585;51.018;4.282;2023-03-04T16:43:38;7.20;99.90
18906;DHT22;9585;51.018;4.282;2023-03-04T16:46:08;7.20;99.90
18906;DHT22;9585;51.018;4.282;2023-03-04T16:48:36;7.20;99.90
18906;DHT22;9585;51.018;4.282;2023-03-04T16:51:11;7.30;99.90
18906;DHT22;9585;51.018;4.282;2023-03-04T16:53:45;7.30;99.90
18906;DHT22;9585;51.018;4.282;2023-03-04T16:56:16;7.20;99.90
18906;DHT22;9585;51.018;4.282;2023-03-04T16:58:44;7.20;99.90
18906;DHT22;9585;51.018;4.282;2023-03-04T17:01:16;7.10;99.90
18906;DHT22;9585;51.018;4.282;2023-03-04T17:03:44;7.20;99.90
18906;DHT22;9585;51.018;4.282;2023-03-04T17:06:12;7.10;99.90
18906;DHT22;9585;51.018;4.282;2023-03-04T17:08:40;7.00;99.90
18906;DHT22;9585;51.018;4.282;2023-03-04T17:11:14;7.00;99.90
18906;DHT22;9585;51.018;4.282;2023-03-04T17:13:43;6.90;99.90